Norwegian Getaway — C6ZJ4 — position and weather

sailwx.info

Track history (hours):
 
Tides and Currents Weather Stations Pressure Air Temp Water Temp Dewpoint Dewpoint Depression Visibility Wind Speed Wind Dir Waves Ship Positions

Norwegian Getaway

Last reported at 2018-Jul-20 22:25 UTC. Time now 2018-Jul-22 03:22 UTC.
Position N 20°33' W 086°57'.

Length 326 m; draft 8.6 m.

Type: Passenger vessel. MMSI: 311050900.

Date/timePositionNaut miles runAvg speedWind from/ knotsBaromVisibWave heightAir tempDewpointWater temp
2018-Jul-20 22:25N 20°33' W 086°57'2 4.4
2018-Jul-20 22:00N 20°31' W 086°57'0 0.0
2018-Jul-20 21:30N 20°31' W 086°57'0 0.0
2018-Jul-20 21:00N 20°31' W 086°57'0 0.0
2018-Jul-20 20:30N 20°31' W 086°57'0 0.0
2018-Jul-20 20:00N 20°31' W 086°57'0 0.0
2018-Jul-20 19:30N 20°31' W 086°57'0 0.0
2018-Jul-20 19:00N 20°31' W 086°57'0 0.0
2018-Jul-20 18:30N 20°31' W 086°57'0 0.0
2018-Jul-20 18:00N 20°31' W 086°57'0 0.0
2018-Jul-20 17:30N 20°31' W 086°57'0 0.0
2018-Jul-20 17:00N 20°31' W 086°57'0 0.0
2018-Jul-20 16:27N 20°31' W 086°57'0 0.0
2018-Jul-20 16:00N 20°31' W 086°57'0 0.0
2018-Jul-20 15:30N 20°31' W 086°57'0 0.0
2018-Jul-20 15:00N 20°31' W 086°57'0 0.0
2018-Jul-20 14:30N 20°31' W 086°57'0 0.0
2018-Jul-20 14:00N 20°31' W 086°57'0 0.0
2018-Jul-20 13:27N 20°31' W 086°57'0 0.0
2018-Jul-20 13:00N 20°31' W 086°57'0 0.1
2018-Jul-20 12:31N 20°31' W 086°57'2 3.4
2018-Jul-20 12:01N 20°30' W 086°59'3 6.5
2018-Jul-20 11:30N 20°28' W 087°02'4 7.4
2018-Jul-20 11:00N 20°25' W 087°04'3 6.6
2018-Jul-20 10:30N 20°22' W 087°05'  
2018-Jul-15 21:47N 25°31' W 079°56'415.1
2018-Jul-15 21:30N 25°35' W 079°57'815.2
2018-Jul-15 21:00N 25°42' W 080°01'611.7
2018-Jul-15 20:30N 25°46' W 080°06'3 6.8
2018-Jul-15 20:00N 25°46' W 080°10'0 0.0
2018-Jul-15 19:30N 25°46' W 080°10'0 0.0
2018-Jul-15 19:00N 25°46' W 080°10'0 0.0
2018-Jul-15 18:30N 25°46' W 080°10'0 0.0
2018-Jul-15 18:00N 25°46' W 080°10'0 0.0
2018-Jul-15 17:30N 25°46' W 080°10'0 0.0
2018-Jul-15 17:00N 25°46' W 080°10'0 0.0
2018-Jul-15 16:30N 25°46' W 080°10'0 0.0
2018-Jul-15 16:00N 25°46' W 080°10'0 0.0
2018-Jul-15 15:30N 25°46' W 080°10'0 0.0
2018-Jul-15 15:00N 25°46' W 080°10'0 0.0
2018-Jul-15 14:30N 25°46' W 080°10'0 0.0
2018-Jul-15 14:00N 25°46' W 080°10'0 0.0
2018-Jul-15 13:30N 25°46' W 080°10'0 0.0
2018-Jul-15 13:00N 25°46' W 080°10'0 0.0
2018-Jul-15 12:30N 25°46' W 080°10'0 0.0
2018-Jul-15 12:00N 25°46' W 080°10'0 0.0
2018-Jul-15 11:30N 25°46' W 080°10'0 0.0
2018-Jul-15 11:01N 25°46' W 080°10'0 0.0
2018-Jul-15 10:30N 25°46' W 080°10'1 2.2
2018-Jul-15 10:00N 25°47' W 080°11'2 4.3
2018-Jul-15 09:30N 25°46' W 080°09'510.9
2018-Jul-15 09:00N 25°46' W 080°03'5 9.4
2018-Jul-15 08:30N 25°44' W 079°59'613.0
2018-Jul-15 08:00N 25°37' W 079°57'714.3
2018-Jul-15 07:30N 25°30' W 079°57'48714.7
2018-Jul-13 22:16N 20°33' W 086°57'2 8.3
2018-Jul-13 22:01N 20°31' W 086°57'0 0.1
2018-Jul-13 21:28N 20°31' W 086°57'0 0.0
2018-Jul-13 20:58N 20°31' W 086°57'0 0.0
2018-Jul-13 20:28N 20°31' W 086°57'0 0.0
2018-Jul-13 19:58N 20°31' W 086°57'0 0.0
2018-Jul-13 19:25N 20°31' W 086°57'0 0.0
2018-Jul-13 18:58N 20°31' W 086°57'0 0.0
2018-Jul-13 18:28N 20°31' W 086°57'0 0.0
2018-Jul-13 17:58N 20°31' W 086°57'0 0.0
2018-Jul-13 17:28N 20°31' W 086°57'0 0.0
2018-Jul-13 16:58N 20°31' W 086°57'0 0.0
2018-Jul-13 16:28N 20°31' W 086°57'0 0.0
2018-Jul-13 15:58N 20°31' W 086°57'0 0.0
2018-Jul-13 15:28N 20°31' W 086°57'0 0.0
2018-Jul-13 14:55N 20°31' W 086°57'0 0.0
2018-Jul-13 13:58N 20°31' W 086°57'0 0.0
2018-Jul-13 13:28N 20°31' W 086°57'0 0.0
2018-Jul-13 12:58N 20°31' W 086°57'0 0.3
2018-Jul-13 12:30N 20°31' W 086°57'2 4.7
2018-Jul-13 12:00N 20°29' W 086°60'611.2
2018-Jul-13 11:30N 20°25' W 087°03'  
Track history (hours):
 
Tides and Currents Weather Stations Pressure Air Temp Water Temp Dewpoint Dewpoint Depression Visibility Wind Speed Wind Dir Waves Ship Positions

Norwegian Getaway

Last reported at 2018-Jul-20 22:25 UTC. Time now 2018-Jul-22 03:22 UTC.
Position N 20°33' W 086°57'.

Length 326 m; draft 8.6 m.

Type: Passenger vessel. MMSI: 311050900.

Date/timePositionNaut miles runAvg speedWind from/ knotsBaromVisibWave heightAir tempDewpointWater temp
2018-Jul-20 22:25N 20°33' W 086°57'2 4.4
2018-Jul-20 22:00N 20°31' W 086°57'0 0.0
2018-Jul-20 21:30N 20°31' W 086°57'0 0.0
2018-Jul-20 21:00N 20°31' W 086°57'0 0.0
2018-Jul-20 20:30N 20°31' W 086°57'0 0.0
2018-Jul-20 20:00N 20°31' W 086°57'0 0.0
2018-Jul-20 19:30N 20°31' W 086°57'0 0.0
2018-Jul-20 19:00N 20°31' W 086°57'0 0.0
2018-Jul-20 18:30N 20°31' W 086°57'0 0.0
2018-Jul-20 18:00N 20°31' W 086°57'0 0.0
2018-Jul-20 17:30N 20°31' W 086°57'0 0.0
2018-Jul-20 17:00N 20°31' W 086°57'0 0.0
2018-Jul-20 16:27N 20°31' W 086°57'0 0.0
2018-Jul-20 16:00N 20°31' W 086°57'0 0.0
2018-Jul-20 15:30N 20°31' W 086°57'0 0.0
2018-Jul-20 15:00N 20°31' W 086°57'0 0.0
2018-Jul-20 14:30N 20°31' W 086°57'0 0.0
2018-Jul-20 14:00N 20°31' W 086°57'0 0.0
2018-Jul-20 13:27N 20°31' W 086°57'0 0.0
2018-Jul-20 13:00N 20°31' W 086°57'0 0.1
2018-Jul-20 12:31N 20°31' W 086°57'2 3.4
2018-Jul-20 12:01N 20°30' W 086°59'3 6.5
2018-Jul-20 11:30N 20°28' W 087°02'4 7.4
2018-Jul-20 11:00N 20°25' W 087°04'3 6.6
2018-Jul-20 10:30N 20°22' W 087°05'  
2018-Jul-15 21:47N 25°31' W 079°56'415.1
2018-Jul-15 21:30N 25°35' W 079°57'815.2
2018-Jul-15 21:00N 25°42' W 080°01'611.7
2018-Jul-15 20:30N 25°46' W 080°06'3 6.8
2018-Jul-15 20:00N 25°46' W 080°10'0 0.0
2018-Jul-15 19:30N 25°46' W 080°10'0 0.0
2018-Jul-15 19:00N 25°46' W 080°10'0 0.0
2018-Jul-15 18:30N 25°46' W 080°10'0 0.0
2018-Jul-15 18:00N 25°46' W 080°10'0 0.0
2018-Jul-15 17:30N 25°46' W 080°10'0 0.0
2018-Jul-15 17:00N 25°46' W 080°10'0 0.0
2018-Jul-15 16:30N 25°46' W 080°10'0 0.0
2018-Jul-15 16:00N 25°46' W 080°10'0 0.0
2018-Jul-15 15:30N 25°46' W 080°10'0 0.0
2018-Jul-15 15:00N 25°46' W 080°10'0 0.0
2018-Jul-15 14:30N 25°46' W 080°10'0 0.0
2018-Jul-15 14:00N 25°46' W 080°10'0 0.0
2018-Jul-15 13:30N 25°46' W 080°10'0 0.0
2018-Jul-15 13:00N 25°46' W 080°10'0 0.0
2018-Jul-15 12:30N 25°46' W 080°10'0 0.0
2018-Jul-15 12:00N 25°46' W 080°10'0 0.0
2018-Jul-15 11:30N 25°46' W 080°10'0 0.0
2018-Jul-15 11:01N 25°46' W 080°10'0 0.0
2018-Jul-15 10:30N 25°46' W 080°10'1 2.2
2018-Jul-15 10:00N 25°47' W 080°11'2 4.3
2018-Jul-15 09:30N 25°46' W 080°09'510.9
2018-Jul-15 09:00N 25°46' W 080°03'5 9.4
2018-Jul-15 08:30N 25°44' W 079°59'613.0
2018-Jul-15 08:00N 25°37' W 079°57'714.3
2018-Jul-15 07:30N 25°30' W 079°57'48714.7
2018-Jul-13 22:16N 20°33' W 086°57'2 8.3
2018-Jul-13 22:01N 20°31' W 086°57'0 0.1
2018-Jul-13 21:28N 20°31' W 086°57'0 0.0
2018-Jul-13 20:58N 20°31' W 086°57'0 0.0
2018-Jul-13 20:28N 20°31' W 086°57'0 0.0
2018-Jul-13 19:58N 20°31' W 086°57'0 0.0
2018-Jul-13 19:25N 20°31' W 086°57'0 0.0
2018-Jul-13 18:58N 20°31' W 086°57'0 0.0
2018-Jul-13 18:28N 20°31' W 086°57'0 0.0
2018-Jul-13 17:58N 20°31' W 086°57'0 0.0
2018-Jul-13 17:28N 20°31' W 086°57'0 0.0
2018-Jul-13 16:58N 20°31' W 086°57'0 0.0
2018-Jul-13 16:28N 20°31' W 086°57'0 0.0
2018-Jul-13 15:58N 20°31' W 086°57'0 0.0
2018-Jul-13 15:28N 20°31' W 086°57'0 0.0
2018-Jul-13 14:55N 20°31' W 086°57'0 0.0
2018-Jul-13 13:58N 20°31' W 086°57'0 0.0
2018-Jul-13 13:28N 20°31' W 086°57'0 0.0
2018-Jul-13 12:58N 20°31' W 086°57'0 0.3
2018-Jul-13 12:30N 20°31' W 086°57'2 4.7
2018-Jul-13 12:00N 20°29' W 086°60'611.2
2018-Jul-13 11:30N 20°25' W 087°03'  

Dump ship's entire track history